createdAt,value
2023-06-30T00:00:19.434Z,96529.19
2023-06-30T00:02:48.922Z,96523.41
2023-06-30T00:05:15.682Z,96512.63
2023-06-30T00:07:43.822Z,96524.38
2023-06-30T00:10:11.235Z,96512.41
2023-06-30T00:12:38.242Z,96515.38
2023-06-30T00:15:05.848Z,96516.34
2023-06-30T00:17:35.232Z,96514.59
2023-06-30T00:20:06.898Z,96503.84
2023-06-30T00:22:37.026Z,96504.81
2023-06-30T00:25:04.109Z,96499.25
2023-06-30T00:27:30.704Z,96493.75
2023-06-30T00:29:57.266Z,96495.50
2023-06-30T00:32:24.384Z,96488.97
2023-06-30T00:34:51.024Z,96492.22
2023-06-30T00:37:19.926Z,96491.91
2023-06-30T00:39:51.390Z,96494.16
2023-06-30T00:42:20.170Z,96492.31
2023-06-30T00:44:46.846Z,96490.78
2023-06-30T00:47:15.716Z,96492.78
2023-06-30T00:49:42.447Z,96486.72
2023-06-30T00:52:09.100Z,96480.16
2023-06-30T00:54:35.769Z,96487.59
2023-06-30T00:59:38.832Z,96477.88
2023-06-30T01:02:25.749Z,96475.78
2023-06-30T01:05:11.791Z,96481.81
2023-06-30T01:07:40.183Z,96488.28
2023-06-30T01:10:15.808Z,96490.56
2023-06-30T01:12:48.638Z,96484.88
2023-06-30T01:15:16.174Z,96490.38
2023-06-30T01:17:53.153Z,96483.19
2023-06-30T01:20:22.884Z,96479.44
2023-06-30T01:22:59.376Z,96482.94
2023-06-30T01:25:30.268Z,96480.44
2023-06-30T01:27:57.937Z,96495.19
2023-06-30T01:30:31.135Z,96497.09
2023-06-30T01:33:00.125Z,96499.56
2023-06-30T01:35:30.219Z,96490.09
2023-06-30T01:37:57.441Z,96490.84
2023-06-30T01:40:28.761Z,96483.56
2023-06-30T01:43:01.364Z,96482.81
2023-06-30T01:45:29.568Z,96477.09
2023-06-30T01:47:57.716Z,96474.06
2023-06-30T01:50:24.613Z,96485.34
2023-06-30T01:52:51.606Z,96482.59
2023-06-30T01:55:20.268Z,96478.53
2023-06-30T01:57:46.856Z,96482.16
2023-06-30T02:00:13.852Z,96478.28
2023-06-30T02:02:43.861Z,96478.34
2023-06-30T02:05:10.904Z,96477.69
2023-06-30T02:07:37.564Z,96479.16
2023-06-30T02:10:04.516Z,96475.19
2023-06-30T02:12:31.143Z,96481.38
2023-06-30T02:14:57.995Z,96475.31
2023-06-30T02:17:34.429Z,96476.34
2023-06-30T02:20:07.187Z,96474.69
2023-06-30T02:22:34.857Z,96465.84
2023-06-30T02:25:01.437Z,96472.56
2023-06-30T02:27:33.150Z,96471.34
2023-06-30T02:30:06.263Z,96473.88
2023-06-30T02:32:34.140Z,96472.84
2023-06-30T02:35:00.862Z,96468.09
2023-06-30T02:37:27.802Z,96465.84
2023-06-30T02:39:56.727Z,96455.03
2023-06-30T02:42:25.593Z,96462.56
2023-06-30T02:44:54.722Z,96459.31
2023-06-30T02:47:24.348Z,96451.88
2023-06-30T02:49:53.221Z,96450.66
2023-06-30T02:52:19.804Z,96454.44
2023-06-30T02:54:46.431Z,96452.22
2023-06-30T02:57:12.995Z,96455.06
2023-06-30T02:59:44.220Z,96460.31
2023-06-30T03:02:14.071Z,96463.53
2023-06-30T03:04:43.169Z,96467.53
2023-06-30T03:07:21.115Z,96466.56
2023-06-30T03:09:48.130Z,96461.56
2023-06-30T03:12:14.696Z,96466.09
2023-06-30T03:14:41.418Z,96462.84
2023-06-30T03:17:16.376Z,96465.16
2023-06-30T03:19:43.004Z,96465.66
2023-06-30T03:22:09.808Z,96467.91
2023-06-30T03:24:36.591Z,96465.66
2023-06-30T03:27:03.444Z,96467.16
2023-06-30T03:29:34.813Z,96460.41
2023-06-30T03:32:03.683Z,96470.94
2023-06-30T03:34:33.298Z,96485.16
2023-06-30T03:37:02.104Z,96482.47
2023-06-30T03:39:28.717Z,96487.44
2023-06-30T03:41:55.347Z,96488.00
2023-06-30T03:44:28.145Z,96484.50
2023-06-30T03:46:55.189Z,96491.50
2023-06-30T03:49:22.813Z,96490.66
2023-06-30T03:51:49.386Z,96497.72
2023-06-30T03:54:18.197Z,96501.22
2023-06-30T03:56:44.770Z,96499.03
2023-06-30T03:59:11.451Z,96494.75
2023-06-30T04:01:42.617Z,96487.00
2023-06-30T04:04:09.513Z,96498.28
2023-06-30T04:06:40.305Z,96498.75
2023-06-30T04:09:11.420Z,96501.09
2023-06-30T04:11:41.062Z,96494.44
2023-06-30T04:14:07.685Z,96500.56
2023-06-30T04:16:34.285Z,96504.91
2023-06-30T04:19:03.161Z,96499.34
2023-06-30T04:21:32.158Z,96500.69
2023-06-30T04:24:01.707Z,96508.25
2023-06-30T04:26:31.755Z,96506.25
2023-06-30T04:28:58.606Z,96504.28
2023-06-30T04:31:28.114Z,96507.84
2023-06-30T04:33:55.341Z,96518.59
2023-06-30T04:36:22.001Z,96504.75
2023-06-30T04:38:51.203Z,96517.75
2023-06-30T04:41:19.457Z,96513.56
2023-06-30T04:43:48.394Z,96522.50
2023-06-30T04:46:17.352Z,96519.50
2023-06-30T04:48:44.015Z,96519.06
2023-06-30T04:51:10.770Z,96520.59
2023-06-30T04:53:41.811Z,96526.56
2023-06-30T04:56:08.632Z,96525.59
2023-06-30T04:58:35.378Z,96521.34
2023-06-30T05:01:02.236Z,96534.13
2023-06-30T05:03:34.021Z,96535.38
2023-06-30T05:06:00.723Z,96533.41
2023-06-30T05:08:27.561Z,96530.84
2023-06-30T05:10:56.516Z,96532.03
2023-06-30T05:13:23.065Z,96527.97
2023-06-30T05:15:52.693Z,96534.78
2023-06-30T05:18:19.349Z,96535.09
2023-06-30T05:20:45.999Z,96532.66
2023-06-30T05:23:12.571Z,96529.41
2023-06-30T05:25:41.530Z,96531.72
2023-06-30T05:28:11.739Z,96533.19
2023-06-30T05:30:39.767Z,96533.72
2023-06-30T05:33:06.346Z,96530.75
2023-06-30T05:35:35.262Z,96532.19
2023-06-30T05:38:01.976Z,96528.88
2023-06-30T05:40:28.725Z,96533.19
2023-06-30T05:43:00.150Z,96537.19
2023-06-30T05:45:29.196Z,96541.31
2023-06-30T05:47:55.863Z,96550.34
2023-06-30T05:50:24.957Z,96548.97
2023-06-30T05:52:53.920Z,96552.97
2023-06-30T05:55:23.216Z,96556.63
2023-06-30T05:57:49.861Z,96565.88
2023-06-30T06:00:17.508Z,96569.94
2023-06-30T06:02:46.473Z,96566.91
2023-06-30T06:05:15.574Z,96567.41
2023-06-30T06:07:45.007Z,96575.31
2023-06-30T06:10:11.696Z,96578.84
2023-06-30T06:12:41.134Z,96579.81
2023-06-30T06:15:10.867Z,96575.56
2023-06-30T06:17:39.931Z,96577.72
2023-06-30T06:20:07.021Z,96584.72
2023-06-30T06:22:38.180Z,96587.91
2023-06-30T06:25:05.238Z,96586.56
2023-06-30T06:27:37.031Z,96588.84
2023-06-30T06:30:09.424Z,96598.31
2023-06-30T06:32:36.250Z,96591.31
2023-06-30T06:35:02.935Z,96594.50
2023-06-30T06:37:31.757Z,96590.56
2023-06-30T06:39:58.357Z,96594.94
2023-06-30T06:42:27.261Z,96601.19
2023-06-30T06:44:56.137Z,96596.78
2023-06-30T06:48:16.890Z,96604.22
2023-06-30T06:50:46.100Z,96608.53
2023-06-30T06:53:23.069Z,96607.78
2023-06-30T06:55:52.976Z,96607.78
2023-06-30T06:58:25.227Z,96605.78
2023-06-30T07:00:52.918Z,96602.31
2023-06-30T07:03:22.280Z,96599.72
2023-06-30T07:05:52.993Z,96609.50
2023-06-30T07:08:20.310Z,96604.38
2023-06-30T07:10:51.283Z,96595.69
2023-06-30T07:13:21.957Z,96601.41
2023-06-30T07:15:49.789Z,96595.69
2023-06-30T07:18:19.388Z,96601.25
2023-06-30T07:20:54.112Z,96595.13
2023-06-30T07:23:26.412Z,96595.06
2023-06-30T07:25:53.716Z,96598.34
2023-06-30T07:28:20.371Z,96595.69
2023-06-30T07:30:49.652Z,96596.47
2023-06-30T07:33:21.129Z,96597.34
2023-06-30T07:35:47.850Z,96601.81
2023-06-30T07:38:17.128Z,96592.88
2023-06-30T07:40:55.210Z,96592.75
2023-06-30T07:43:25.645Z,96593.97
2023-06-30T07:45:52.395Z,96587.97
2023-06-30T07:48:19.073Z,96597.28
2023-06-30T07:50:58.827Z,96589.25
2023-06-30T07:53:35.441Z,96595.78
2023-06-30T07:56:05.286Z,96598.28
2023-06-30T07:58:32.663Z,96592.53
2023-06-30T08:00:59.292Z,96600.53
2023-06-30T08:03:26.016Z,96604.28
2023-06-30T08:05:56.514Z,96605.69
2023-06-30T08:08:24.632Z,96608.03
2023-06-30T08:10:51.208Z,96609.78
2023-06-30T08:13:17.811Z,96607.53
2023-06-30T08:15:49.969Z,96601.72
2023-06-30T08:18:31.500Z,96603.69
2023-06-30T08:21:01.058Z,96607.38
2023-06-30T08:23:30.173Z,96596.47
2023-06-30T08:25:56.767Z,96599.84
2023-06-30T08:28:23.422Z,96600.31
2023-06-30T08:30:53.419Z,96601.28
2023-06-30T08:33:35.096Z,96592.56
2023-06-30T08:36:07.251Z,96600.13
2023-06-30T08:38:36.339Z,96599.66
2023-06-30T08:41:04.382Z,96602.78
2023-06-30T08:43:35.542Z,96599.84
2023-06-30T08:46:03.940Z,96597.97
2023-06-30T08:48:36.987Z,96598.00
2023-06-30T08:51:04.196Z,96595.03
2023-06-30T08:53:34.541Z,96590.34
2023-06-30T08:56:03.451Z,96595.84
2023-06-30T08:58:30.055Z,96582.91
2023-06-30T09:00:57.211Z,96588.66
2023-06-30T09:03:24.725Z,96593.47
2023-06-30T09:05:54.894Z,96597.22
2023-06-30T09:08:25.048Z,96602.59
2023-06-30T09:10:56.151Z,96610.34
2023-06-30T09:13:27.741Z,96605.66
2023-06-30T09:15:58.820Z,96601.00
2023-06-30T09:18:26.060Z,96602.47
2023-06-30T09:20:54.016Z,96600.84
2023-06-30T09:23:23.280Z,96594.50
2023-06-30T09:25:53.089Z,96584.28
2023-06-30T09:28:19.751Z,96580.00
2023-06-30T09:30:48.079Z,96569.44
2023-06-30T09:33:16.820Z,96568.19
2023-06-30T09:35:49.559Z,96577.25
2023-06-30T09:38:18.422Z,96572.00
2023-06-30T09:40:49.697Z,96566.28
2023-06-30T09:43:18.417Z,96573.09
2023-06-30T09:45:47.802Z,96571.38
2023-06-30T09:48:17.236Z,96569.41
2023-06-30T09:50:44.058Z,96570.97
2023-06-30T09:53:12.740Z,96570.50
2023-06-30T09:55:52.362Z,96562.13
2023-06-30T09:58:21.009Z,96556.72
2023-06-30T10:00:48.669Z,96556.53
2023-06-30T10:03:19.705Z,96553.56
2023-06-30T10:05:50.371Z,96554.00
2023-06-30T10:08:21.224Z,96556.03
2023-06-30T10:10:48.768Z,96548.44
2023-06-30T10:13:17.606Z,96554.97
2023-06-30T10:15:47.321Z,96560.38
2023-06-30T10:18:18.943Z,96563.44
2023-06-30T10:20:50.291Z,96565.59
2023-06-30T10:23:22.217Z,96573.97
2023-06-30T10:25:50.918Z,96578.50
2023-06-30T10:28:19.331Z,96580.25
2023-06-30T10:30:50.423Z,96587.28
2023-06-30T10:33:17.118Z,96595.34
2023-06-30T10:35:45.226Z,96600.38
2023-06-30T10:38:14.260Z,96599.56
2023-06-30T10:40:41.063Z,96597.34
2023-06-30T10:43:14.772Z,96597.31
2023-06-30T10:46:12.486Z,96597.75
2023-06-30T10:48:44.364Z,96597.22
2023-06-30T10:51:13.750Z,96595.66
2023-06-30T10:53:43.814Z,96608.13
2023-06-30T10:56:10.448Z,96593.22
2023-06-30T10:58:46.331Z,96598.28
2023-06-30T11:01:14.503Z,96594.84
2023-06-30T11:03:59.699Z,96589.84
2023-06-30T11:06:27.606Z,96585.63
2023-06-30T11:09:04.387Z,96589.63
2023-06-30T11:11:48.185Z,96589.09
2023-06-30T11:14:14.867Z,96589.94
2023-06-30T11:17:06.865Z,96591.19
2023-06-30T11:19:36.187Z,96588.91
2023-06-30T11:22:22.902Z,96596.16
2023-06-30T11:24:52.285Z,96590.91
2023-06-30T11:27:20.189Z,96585.69
2023-06-30T11:29:53.857Z,96571.97
2023-06-30T11:32:28.955Z,96572.41
2023-06-30T11:34:57.098Z,96576.00
2023-06-30T11:37:31.097Z,96591.06
2023-06-30T11:39:59.461Z,96588.81
2023-06-30T11:42:30.798Z,96587.28
2023-06-30T11:44:57.372Z,96583.31
2023-06-30T11:47:26.811Z,96583.53
2023-06-30T11:49:58.216Z,96579.78
2023-06-30T11:52:27.126Z,96575.50
2023-06-30T11:54:53.906Z,96570.19
2023-06-30T11:57:20.549Z,96570.22
2023-06-30T11:59:49.163Z,96564.97
2023-06-30T12:02:18.306Z,96565.44
2023-06-30T12:04:48.861Z,96565.69
2023-06-30T12:07:16.094Z,96566.94
2023-06-30T12:09:46.152Z,96571.75
2023-06-30T12:12:26.341Z,96562.69
2023-06-30T12:14:56.278Z,96570.97
2023-06-30T12:17:25.592Z,96558.44
2023-06-30T12:19:52.171Z,96567.97
2023-06-30T12:22:28.399Z,96556.41
2023-06-30T12:25:00.097Z,96553.63
2023-06-30T12:27:28.559Z,96563.19
2023-06-30T12:29:58.215Z,96556.13
2023-06-30T12:32:32.255Z,96564.66
2023-06-30T12:35:01.301Z,96559.91
2023-06-30T12:37:31.226Z,96563.16
2023-06-30T12:39:59.911Z,96551.88
2023-06-30T12:42:33.479Z,96561.66
2023-06-30T12:45:00.633Z,96563.88
2023-06-30T12:47:27.284Z,96563.47
2023-06-30T12:49:56.438Z,96555.28
2023-06-30T12:52:25.571Z,96559.56
2023-06-30T12:54:52.268Z,96563.97
2023-06-30T12:57:18.885Z,96558.63
2023-06-30T12:59:45.482Z,96555.66
2023-06-30T13:02:15.054Z,96560.19
2023-06-30T13:04:41.642Z,96559.94
2023-06-30T13:07:11.256Z,96553.63
2023-06-30T13:09:37.859Z,96552.19
2023-06-30T13:12:12.689Z,96551.75
2023-06-30T13:14:41.598Z,96544.75
2023-06-30T13:17:10.604Z,96554.53
2023-06-30T13:19:44.551Z,96548.47
2023-06-30T13:22:11.169Z,96546.53
2023-06-30T13:24:40.690Z,96541.78
2023-06-30T13:27:07.830Z,96545.81
2023-06-30T13:29:35.980Z,96545.03
2023-06-30T13:32:05.570Z,96556.81
2023-06-30T13:34:34.458Z,96560.81
2023-06-30T13:37:03.109Z,96557.63
2023-06-30T13:39:29.697Z,96556.06
2023-06-30T13:41:56.296Z,96558.06
2023-06-30T13:44:25.714Z,96547.31
2023-06-30T13:46:52.271Z,96549.53
2023-06-30T13:49:18.885Z,96556.06
2023-06-30T13:51:45.475Z,96550.09
2023-06-30T13:54:12.075Z,96545.78
2023-06-30T13:56:38.621Z,96546.91
2023-06-30T13:59:09.985Z,96548.50
2023-06-30T14:01:39.617Z,96542.31
2023-06-30T14:04:06.167Z,96552.19
2023-06-30T14:06:35.027Z,96548.19
2023-06-30T14:09:03.952Z,96547.69
2023-06-30T14:11:30.515Z,96545.66
2023-06-30T14:14:04.476Z,96547.94
2023-06-30T14:16:31.906Z,96539.75
2023-06-30T14:19:03.524Z,96546.88
2023-06-30T14:21:31.919Z,96545.03
2023-06-30T14:23:59.115Z,96544.44
2023-06-30T14:26:26.185Z,96545.03
2023-06-30T14:28:56.650Z,96545.97
2023-06-30T14:31:23.322Z,96536.25
2023-06-30T14:33:54.725Z,96547.03
2023-06-30T14:36:27.300Z,96531.69
2023-06-30T14:38:56.179Z,96536.34
2023-06-30T14:41:23.588Z,96538.72
2023-06-30T14:43:53.222Z,96535.19
2023-06-30T14:46:21.946Z,96537.97
2023-06-30T14:48:51.602Z,96537.31
2023-06-30T14:51:18.313Z,96537.31
2023-06-30T14:53:51.996Z,96540.38
2023-06-30T14:56:18.574Z,96542.72
2023-06-30T14:58:51.018Z,96551.69
2023-06-30T15:01:21.873Z,96544.41
2023-06-30T15:03:49.973Z,96544.94
2023-06-30T15:06:19.995Z,96541.47
2023-06-30T15:08:46.574Z,96533.59
2023-06-30T15:11:13.318Z,96540.09
2023-06-30T15:13:39.999Z,96534.34
2023-06-30T15:16:06.678Z,96534.22
2023-06-30T15:18:35.463Z,96531.44
2023-06-30T15:21:02.116Z,96535.00
2023-06-30T15:23:31.254Z,96538.56
2023-06-30T15:25:57.859Z,96548.63
2023-06-30T15:28:24.422Z,96559.84
2023-06-30T15:30:55.573Z,96557.53
2023-06-30T15:33:22.225Z,96564.22
2023-06-30T15:35:48.935Z,96572.41
2023-06-30T15:38:15.603Z,96560.03
2023-06-30T15:40:43.398Z,96566.88
2023-06-30T15:43:13.529Z,96564.91
2023-06-30T15:45:41.188Z,96567.75
2023-06-30T15:48:16.134Z,96565.13
2023-06-30T15:50:46.486Z,96563.53
2023-06-30T15:53:15.530Z,96563.44
2023-06-30T15:55:44.679Z,96564.44
2023-06-30T15:58:11.469Z,96562.09
2023-06-30T16:00:38.113Z,96569.22
2023-06-30T16:03:04.870Z,96566.06
2023-06-30T16:05:33.826Z,96564.94
2023-06-30T16:08:03.484Z,96567.97
2023-06-30T16:10:32.152Z,96564.75
2023-06-30T16:12:58.860Z,96569.25
2023-06-30T16:15:25.847Z,96572.25
2023-06-30T16:17:57.310Z,96564.75
2023-06-30T16:20:23.967Z,96565.69
2023-06-30T16:22:50.699Z,96568.66
2023-06-30T16:25:22.144Z,96562.94
2023-06-30T16:27:51.056Z,96574.09
2023-06-30T16:30:31.790Z,96566.00
2023-06-30T16:33:04.099Z,96566.69
2023-06-30T16:35:34.372Z,96567.22
2023-06-30T16:38:03.650Z,96570.50
2023-06-30T16:40:32.843Z,96570.28
2023-06-30T16:42:59.405Z,96570.44
2023-06-30T16:45:30.993Z,96577.53
2023-06-30T16:48:00.661Z,96571.72
2023-06-30T16:50:30.010Z,96570.25
2023-06-30T16:52:56.582Z,96571.72
2023-06-30T16:55:27.958Z,96575.81
2023-06-30T16:57:56.962Z,96574.59
2023-06-30T17:00:25.766Z,96571.28
2023-06-30T17:02:52.508Z,96577.63
2023-06-30T17:05:19.225Z,96570.63
2023-06-30T17:07:45.884Z,96581.00
2023-06-30T17:10:12.742Z,96578.41
2023-06-30T17:12:41.826Z,96577.72
2023-06-30T17:15:14.715Z,96582.28
2023-06-30T17:17:41.302Z,96580.66
2023-06-30T17:20:08.598Z,96578.91
2023-06-30T17:22:35.165Z,96584.16
2023-06-30T17:25:05.106Z,96575.63
2023-06-30T17:27:32.516Z,96578.38
2023-06-30T17:29:59.355Z,96581.88
2023-06-30T17:32:28.391Z,96583.63
2023-06-30T17:34:54.977Z,96582.16
2023-06-30T17:37:26.395Z,96583.69
2023-06-30T17:39:53.017Z,96594.84
2023-06-30T17:42:19.602Z,96590.78
2023-06-30T17:44:46.218Z,96592.84
2023-06-30T17:47:17.571Z,96590.25
2023-06-30T17:49:47.370Z,96596.69
2023-06-30T17:52:14.185Z,96593.13
2023-06-30T17:54:40.838Z,96600.22
2023-06-30T17:57:12.335Z,96603.00
2023-06-30T17:59:41.277Z,96607.94
2023-06-30T18:02:07.900Z,96603.88
2023-06-30T18:04:34.659Z,96606.72
2023-06-30T18:07:09.908Z,96610.34
2023-06-30T18:09:40.235Z,96621.06
2023-06-30T18:12:11.197Z,96618.81
2023-06-30T18:14:41.424Z,96611.31
2023-06-30T18:17:11.534Z,96618.66
2023-06-30T18:19:43.748Z,96620.53
2023-06-30T18:22:14.533Z,96611.94
2023-06-30T18:24:43.625Z,96624.84
2023-06-30T18:27:10.287Z,96615.50
2023-06-30T18:29:40.480Z,96615.53
2023-06-30T18:32:10.431Z,96616.47
2023-06-30T18:34:37.196Z,96616.16
2023-06-30T18:37:08.356Z,96626.09
2023-06-30T18:39:38.660Z,96625.56
2023-06-30T18:42:08.050Z,96622.81
2023-06-30T18:44:37.281Z,96622.44
2023-06-30T18:47:06.082Z,96629.31
2023-06-30T18:49:35.810Z,96628.31
2023-06-30T18:52:08.264Z,96631.75
2023-06-30T18:54:35.009Z,96631.06
2023-06-30T18:57:03.863Z,96636.72
2023-06-30T18:59:35.261Z,96631.88
2023-06-30T19:02:01.913Z,96626.09
2023-06-30T19:04:28.617Z,96632.50
2023-06-30T19:06:55.308Z,96636.72
2023-06-30T19:09:24.615Z,96631.88
2023-06-30T19:11:56.849Z,96637.09
2023-06-30T19:14:27.622Z,96643.72
2023-06-30T19:16:54.297Z,96647.97
2023-06-30T19:19:31.635Z,96652.25
2023-06-30T19:21:58.254Z,96653.25
2023-06-30T19:24:27.005Z,96658.28
2023-06-30T19:26:58.434Z,96658.28
2023-06-30T19:29:27.469Z,96663.28
2023-06-30T19:31:56.443Z,96667.56
2023-06-30T19:34:25.360Z,96665.84
2023-06-30T19:36:53.324Z,96663.03
2023-06-30T19:39:19.862Z,96671.06
2023-06-30T19:41:46.558Z,96671.06
2023-06-30T19:44:13.291Z,96676.00
2023-06-30T19:46:42.379Z,96684.00
2023-06-30T19:49:08.970Z,96679.75
2023-06-30T19:51:35.591Z,96677.47
2023-06-30T19:54:02.154Z,96681.75
2023-06-30T19:56:28.749Z,96685.66
2023-06-30T19:58:55.345Z,96689.25
2023-06-30T20:01:26.574Z,96696.84
2023-06-30T20:03:57.363Z,96692.41
2023-06-30T20:06:24.196Z,96698.69
2023-06-30T20:08:53.852Z,96703.03
2023-06-30T20:11:22.644Z,96694.88
2023-06-30T20:13:49.336Z,96696.91
2023-06-30T20:16:16.043Z,96702.31
2023-06-30T20:18:47.497Z,96701.25
2023-06-30T20:21:14.109Z,96702.41
2023-06-30T20:23:40.731Z,96707.59
2023-06-30T20:26:09.556Z,96706.84
2023-06-30T20:28:40.797Z,96706.28
2023-06-30T20:31:07.448Z,96710.34
2023-06-30T20:33:36.736Z,96709.97
2023-06-30T20:36:03.605Z,96711.78
2023-06-30T20:38:32.547Z,96713.81
2023-06-30T20:41:01.431Z,96721.50
2023-06-30T20:43:30.565Z,96721.88
2023-06-30T20:45:59.663Z,96723.03
2023-06-30T20:48:28.779Z,96721.72
2023-06-30T20:50:55.417Z,96725.31
2023-06-30T20:53:24.557Z,96720.81
2023-06-30T20:55:56.199Z,96724.63
2023-06-30T20:58:22.796Z,96719.78
2023-06-30T21:00:49.515Z,96720.00
2023-06-30T21:03:18.654Z,96715.28
2023-06-30T21:05:45.460Z,96713.75
2023-06-30T21:08:12.120Z,96708.97
2023-06-30T21:10:40.959Z,96708.34
2023-06-30T21:13:07.553Z,96708.91
2023-06-30T21:15:34.154Z,96714.06
2023-06-30T21:18:00.805Z,96711.19
2023-06-30T21:20:27.462Z,96716.31
2023-06-30T21:22:56.261Z,96719.16
2023-06-30T21:25:22.874Z,96718.25
2023-06-30T21:27:49.510Z,96719.47
2023-06-30T21:30:16.217Z,96717.88
2023-06-30T21:32:42.809Z,96714.38
2023-06-30T21:35:09.651Z,96712.97
2023-06-30T21:37:36.547Z,96720.78
2023-06-30T21:40:03.736Z,96715.97
2023-06-30T21:42:32.694Z,96721.06
2023-06-30T21:44:59.288Z,96719.75
2023-06-30T21:47:28.989Z,96713.13
2023-06-30T21:49:55.897Z,96719.84
2023-06-30T21:52:24.707Z,96713.78
2023-06-30T21:54:56.062Z,96714.06
2023-06-30T21:57:24.850Z,96711.75
2023-06-30T21:59:53.926Z,96710.78
2023-06-30T22:02:23.181Z,96705.59
2023-06-30T22:04:52.126Z,96710.78
2023-06-30T22:07:21.126Z,96711.91
2023-06-30T22:09:52.503Z,96711.63
2023-06-30T22:12:21.344Z,96706.13
2023-06-30T22:14:47.991Z,96699.34
2023-06-30T22:17:14.653Z,96699.88
2023-06-30T22:19:43.619Z,96703.56
2023-06-30T22:22:12.450Z,96700.44
2023-06-30T22:24:39.009Z,96697.97
2023-06-30T22:27:06.198Z,96704.81
2023-06-30T22:29:35.028Z,96702.53
2023-06-30T22:32:01.664Z,96707.38
2023-06-30T22:34:28.466Z,96691.66
2023-06-30T22:36:55.172Z,96695.34
2023-06-30T22:39:24.032Z,96698.84
2023-06-30T22:41:53.145Z,96702.06
2023-06-30T22:44:19.796Z,96697.16
2023-06-30T22:46:51.240Z,96695.53
2023-06-30T22:49:17.848Z,96691.84
2023-06-30T22:51:49.223Z,96690.41
2023-06-30T22:54:15.806Z,96686.78
2023-06-30T22:56:42.469Z,96689.16
2023-06-30T22:59:09.116Z,96684.91
2023-06-30T23:01:38.221Z,96697.31
2023-06-30T23:04:05.149Z,96691.81
2023-06-30T23:06:34.299Z,96687.56
2023-06-30T23:09:01.005Z,96685.56
2023-06-30T23:11:27.620Z,96680.56
2023-06-30T23:13:54.226Z,96682.84
2023-06-30T23:16:20.840Z,96682.38
2023-06-30T23:18:49.687Z,96674.91
2023-06-30T23:21:19.044Z,96677.06
2023-06-30T23:23:49.614Z,96680.56
2023-06-30T23:26:25.126Z,96682.25
2023-06-30T23:28:54.493Z,96678.19
2023-06-30T23:31:21.938Z,96682.53
2023-06-30T23:33:55.442Z,96676.50
2023-06-30T23:36:24.276Z,96677.72
2023-06-30T23:38:51.119Z,96680.91
2023-06-30T23:41:17.774Z,96674.97
2023-06-30T23:43:46.893Z,96678.28
2023-06-30T23:46:22.765Z,96679.22
2023-06-30T23:48:51.732Z,96678.63
2023-06-30T23:51:21.210Z,96684.59
2023-06-30T23:53:50.201Z,96678.34
2023-06-30T23:56:19.811Z,96673.44
2023-06-30T23:58:49.117Z,96673.63
